createdAt,value
2019-01-04T00:00:32.196Z,100.00
2019-01-04T00:03:04.845Z,100.00
2019-01-04T00:05:35.540Z,100.00
2019-01-04T00:08:09.183Z,100.00
2019-01-04T00:10:39.582Z,100.00
2019-01-04T00:13:11.891Z,100.00
2019-01-04T00:15:42.427Z,100.00
2019-01-04T00:18:14.637Z,100.00
2019-01-04T00:20:46.411Z,100.00
2019-01-04T00:23:17.590Z,100.00
2019-01-04T00:25:48.930Z,100.00
2019-01-04T00:28:23.978Z,100.00
2019-01-04T00:31:01.360Z,100.00
2019-01-04T00:51:17.569Z,100.00
2019-01-04T00:53:51.164Z,100.00
2019-01-04T00:56:57.861Z,100.00
2019-01-04T01:00:20.848Z,100.00
2019-01-04T01:03:28.061Z,100.00
2019-01-04T01:06:38.450Z,100.00
2019-01-04T01:09:46.010Z,100.00
2019-01-04T01:12:39.003Z,100.00
2019-01-04T01:15:55.091Z,100.00
2019-01-04T01:18:51.146Z,100.00
2019-01-04T01:22:03.457Z,100.00
2019-01-04T01:27:59.346Z,100.00
2019-01-04T01:31:16.207Z,100.00
2019-01-04T01:34:31.718Z,100.00
2019-01-04T01:37:40.703Z,100.00
2019-01-04T01:40:56.524Z,100.00
2019-01-04T01:44:03.244Z,100.00
2019-01-04T01:46:45.495Z,100.00
2019-01-04T01:50:11.264Z,100.00
2019-01-04T01:52:45.155Z,100.00
2019-01-04T01:55:22.023Z,100.00
2019-01-04T01:57:54.393Z,100.00
2019-01-04T02:00:24.817Z,100.00
2019-01-04T02:02:56.793Z,100.00
2019-01-04T02:05:27.383Z,100.00
2019-01-04T02:08:04.087Z,100.00
2019-01-04T02:10:36.203Z,100.00
2019-01-04T02:13:58.177Z,100.00
2019-01-04T02:16:29.024Z,100.00
2019-01-04T02:18:59.435Z,100.00
2019-01-04T02:21:29.738Z,100.00
2019-01-04T02:24:00.395Z,100.00
2019-01-04T02:27:32.017Z,100.00
2019-01-04T02:30:07.842Z,100.00
2019-01-04T02:32:42.309Z,100.00
2019-01-04T02:35:34.818Z,100.00
2019-01-04T03:19:50.139Z,100.00
2019-01-04T03:22:25.111Z,100.00
2019-01-04T03:27:36.539Z,100.00
2019-01-04T03:30:08.575Z,100.00
2019-01-04T03:32:42.406Z,100.00
2019-01-04T03:35:14.283Z,100.00
2019-01-04T03:37:46.309Z,100.00
2019-01-04T03:40:18.581Z,100.00
2019-01-04T03:42:59.537Z,100.00
2019-01-04T03:45:30.657Z,100.00
2019-01-04T03:48:03.374Z,100.00
2019-01-04T03:50:47.454Z,100.00
2019-01-04T03:53:39.457Z,100.00
2019-01-04T03:56:10.875Z,100.00
2019-01-04T03:59:03.203Z,100.00
2019-01-04T04:01:35.956Z,100.00
2019-01-04T04:04:06.452Z,100.00
2019-01-04T04:06:38.183Z,100.00
2019-01-04T04:09:09.788Z,100.00
2019-01-04T04:11:42.828Z,100.00
2019-01-04T04:14:19.087Z,100.00
2019-01-04T04:16:49.680Z,100.00
2019-01-04T04:19:20.794Z,100.00
2019-01-04T04:21:52.699Z,100.00
2019-01-04T04:24:22.976Z,100.00
2019-01-04T04:26:53.637Z,100.00
2019-01-04T04:29:24.186Z,100.00
2019-01-04T04:31:54.736Z,100.00
2019-01-04T04:34:26.367Z,100.00
2019-01-04T04:37:11.987Z,100.00
2019-01-04T04:39:42.528Z,100.00
2019-01-04T04:42:13.228Z,100.00
2019-01-04T04:45:22.687Z,100.00
2019-01-04T04:48:01.209Z,100.00
2019-01-04T04:51:18.182Z,100.00
2019-01-04T04:53:51.295Z,100.00
2019-01-04T04:56:27.320Z,100.00
2019-01-04T04:59:09.801Z,100.00
2019-01-04T05:01:33.392Z,100.00
2019-01-04T05:04:49.702Z,100.00
2019-01-04T05:07:26.087Z,100.00
2019-01-04T05:12:52.256Z,100.00
2019-01-04T05:15:25.037Z,100.00
2019-01-04T05:56:54.846Z,97.95
2019-01-04T06:00:07.221Z,98.00
2019-01-04T06:02:43.306Z,98.43
2019-01-04T06:05:19.087Z,98.42
2019-01-04T06:07:56.883Z,98.79
2019-01-04T06:10:51.368Z,98.96
2019-01-04T06:13:24.945Z,98.06
2019-01-04T06:16:07.874Z,97.44
2019-01-04T06:18:38.995Z,96.88
2019-01-04T06:21:20.234Z,97.01
2019-01-04T06:23:52.484Z,96.49
2019-01-04T06:30:20.032Z,97.08
2019-01-04T06:33:02.843Z,96.30
2019-01-04T06:35:37.714Z,96.54
2019-01-04T06:38:13.716Z,96.72
2019-01-04T06:41:06.484Z,96.89
2019-01-04T06:43:52.425Z,97.17
2019-01-04T06:46:31.803Z,97.38
2019-01-04T06:50:09.243Z,97.34
2019-01-04T06:52:23.525Z,96.72
2019-01-04T06:56:05.198Z,96.44
2019-01-04T06:59:25.494Z,96.66
2019-01-04T07:02:31.863Z,96.95
2019-01-04T07:05:06.693Z,97.15
2019-01-04T07:07:44.245Z,97.25
2019-01-04T07:10:17.955Z,97.54
2019-01-04T07:13:39.866Z,97.47
2019-01-04T07:16:17.965Z,97.67
2019-01-04T07:18:51.858Z,98.31
2019-01-04T07:21:39.515Z,98.66
2019-01-04T07:24:20.449Z,99.02
2019-01-04T07:27:01.258Z,99.28
2019-01-04T07:32:18.606Z,99.46
2019-01-04T07:34:56.009Z,99.78
2019-01-04T07:37:31.171Z,98.43
2019-01-04T07:40:57.618Z,98.24
2019-01-04T07:43:56.027Z,98.50
2019-01-04T07:46:41.316Z,98.07
2019-01-04T07:49:45.106Z,98.06
2019-01-04T07:52:36.546Z,97.90
2019-01-04T08:01:17.125Z,97.32
2019-01-04T08:03:51.462Z,97.75
2019-01-04T08:06:23.719Z,98.07
2019-01-04T08:08:56.604Z,98.16
2019-01-04T08:11:31.010Z,98.08
2019-01-04T08:14:02.999Z,98.28
2019-01-04T08:16:33.736Z,97.96
2019-01-04T08:19:05.366Z,97.86
2019-01-04T08:21:35.992Z,97.55
2019-01-04T08:24:18.705Z,97.36
2019-01-04T08:26:53.643Z,97.10
2019-01-04T08:29:36.680Z,96.79
2019-01-04T08:32:36.894Z,96.46
2019-01-04T08:35:19.911Z,96.10
2019-01-04T08:39:18.773Z,95.53
2019-01-04T08:41:27.832Z,95.18
2019-01-04T08:44:04.655Z,94.50
2019-01-04T08:46:45.722Z,94.53
2019-01-04T08:49:18.696Z,94.43
2019-01-04T08:51:53.600Z,94.74
2019-01-04T08:54:28.642Z,94.33
2019-01-04T08:57:00.305Z,94.23
2019-01-04T08:59:38.925Z,93.94
2019-01-04T09:02:19.880Z,93.67
2019-01-04T09:04:53.925Z,92.83
2019-01-04T09:07:27.957Z,92.02
2019-01-04T09:10:01.552Z,92.17
2019-01-04T09:12:33.785Z,91.38
2019-01-04T09:15:04.725Z,90.66
2019-01-04T09:17:39.206Z,90.44
2019-01-04T09:20:23.323Z,89.84
2019-01-04T09:22:55.209Z,88.91
2019-01-04T09:25:27.373Z,88.35
2019-01-04T09:27:58.901Z,87.61
2019-01-04T09:30:31.706Z,87.56
2019-01-04T09:33:05.242Z,85.73
2019-01-04T09:35:36.506Z,85.44
2019-01-04T09:38:16.952Z,84.71
2019-01-04T09:41:34.515Z,84.29
2019-01-04T09:44:18.055Z,84.09
2019-01-04T09:46:55.332Z,83.74
2019-01-04T09:59:26.366Z,82.11
2019-01-04T10:01:58.382Z,82.65
2019-01-04T10:04:33.939Z,81.88
2019-01-04T10:07:06.318Z,82.15
2019-01-04T10:09:50.552Z,82.23
2019-01-04T10:12:38.334Z,81.74
2019-01-04T10:22:18.075Z,80.64
2019-01-04T10:24:56.970Z,80.04
2019-01-04T10:27:33.017Z,80.44
2019-01-04T10:30:04.227Z,80.57
2019-01-04T10:32:36.664Z,80.41
2019-01-04T10:35:20.940Z,80.57
2019-01-04T10:37:45.071Z,80.48
2019-01-04T10:40:26.768Z,80.58
2019-01-04T10:42:49.381Z,79.44
2019-01-04T10:45:27.287Z,80.40
2019-01-04T10:47:58.341Z,80.15
2019-01-04T10:50:29.880Z,81.04
2019-01-04T10:53:09.180Z,81.44
2019-01-04T10:55:41.684Z,81.08
2019-01-04T10:58:32.690Z,79.77
2019-01-04T11:01:09.292Z,80.10
2019-01-04T11:04:04.857Z,79.73
2019-01-04T11:06:39.747Z,78.87
2019-01-04T11:09:19.022Z,80.34
2019-01-04T11:11:53.734Z,80.46
2019-01-04T11:14:30.049Z,80.03
2019-01-04T11:21:27.584Z,81.00
2019-01-04T11:24:11.700Z,82.72
2019-01-04T11:26:58.865Z,82.62
2019-01-04T11:30:40.283Z,83.37
2019-01-04T11:44:37.282Z,82.22
2019-01-04T11:48:00.854Z,81.05
2019-01-04T11:51:15.318Z,80.93
2019-01-04T11:53:53.046Z,81.33
2019-01-04T11:56:32.351Z,80.73
2019-01-04T11:59:07.146Z,82.32
2019-01-04T12:01:55.720Z,82.71
2019-01-04T12:07:11.485Z,80.33
2019-01-04T12:09:46.046Z,79.44
2019-01-04T12:12:20.224Z,79.79
2019-01-04T12:15:09.651Z,79.07
2019-01-04T12:17:51.175Z,77.63
2019-01-04T12:20:22.778Z,78.54
2019-01-04T12:22:57.015Z,79.63
2019-01-04T12:25:43.647Z,80.33
2019-01-04T12:43:05.731Z,79.78
2019-01-04T12:45:44.105Z,82.05
2019-01-04T12:48:20.005Z,82.83
2019-01-04T12:51:10.580Z,82.03
2019-01-04T12:54:01.296Z,79.59
2019-01-04T12:56:38.144Z,79.68
2019-01-04T12:59:33.919Z,80.08
2019-01-04T13:02:22.528Z,78.74
2019-01-04T13:05:26.676Z,79.75
2019-01-04T13:08:12.398Z,78.97
2019-01-04T13:11:12.298Z,78.26
2019-01-04T13:13:48.869Z,79.23
2019-01-04T13:16:42.390Z,79.51
2019-01-04T13:19:34.151Z,79.41
2019-01-04T13:22:05.524Z,79.44
2019-01-04T13:24:36.072Z,78.33
2019-01-04T13:27:08.250Z,78.69
2019-01-04T13:29:39.103Z,79.26
2019-01-04T13:32:12.120Z,79.25
2019-01-04T13:34:45.638Z,77.82
2019-01-04T13:37:18.470Z,78.30
2019-01-04T13:39:49.445Z,78.38
2019-01-04T13:42:25.117Z,80.02
2019-01-04T13:44:57.379Z,79.08
2019-01-04T13:47:32.207Z,79.41
2019-01-04T13:50:00.328Z,78.53
2019-01-04T13:52:31.090Z,78.96
2019-01-04T13:55:13.734Z,79.27
2019-01-04T13:57:49.159Z,79.68
2019-01-04T14:00:30.695Z,78.17
2019-01-04T14:02:56.707Z,77.67
2019-01-04T14:05:39.062Z,78.04
2019-01-04T14:08:12.067Z,78.02
2019-01-04T14:10:43.759Z,77.33
2019-01-04T14:13:14.653Z,77.94
2019-01-04T14:15:49.800Z,77.24
2019-01-04T14:18:21.877Z,77.47
2019-01-04T14:20:59.376Z,78.11
2019-01-04T14:23:55.513Z,78.59
2019-01-04T14:26:17.406Z,78.92
2019-01-04T14:28:49.270Z,78.64
2019-01-04T14:31:20.441Z,78.52
2019-01-04T14:33:59.741Z,78.73
2019-01-04T14:36:30.567Z,79.40
2019-01-04T14:39:15.653Z,79.46
2019-01-04T14:41:54.049Z,78.71
2019-01-04T14:44:24.415Z,77.83
2019-01-04T14:46:54.857Z,78.20
2019-01-04T14:49:35.945Z,77.79
2019-01-04T14:52:06.793Z,78.44
2019-01-04T14:54:39.104Z,78.59
2019-01-04T14:57:11.316Z,79.48
2019-01-04T14:59:42.928Z,80.27
2019-01-04T15:02:16.446Z,80.10
2019-01-04T15:04:46.550Z,79.41
2019-01-04T15:07:17.037Z,79.74
2019-01-04T15:09:49.122Z,79.84
2019-01-04T15:12:22.267Z,80.36
2019-01-04T15:14:52.565Z,80.23
2019-01-04T15:17:23.088Z,80.58
2019-01-04T15:19:56.299Z,81.08
2019-01-04T15:22:28.237Z,81.20
2019-01-04T15:24:58.555Z,80.98
2019-01-04T15:27:29.280Z,79.90
2019-01-04T15:30:00.925Z,79.85
2019-01-04T15:32:36.255Z,80.20
2019-01-04T15:35:08.590Z,80.29
2019-01-04T15:37:42.757Z,82.89
2019-01-04T15:40:15.902Z,81.48
2019-01-04T15:42:46.898Z,80.65
2019-01-04T15:45:20.939Z,79.63
2019-01-04T15:47:54.926Z,79.87
2019-01-04T15:50:28.736Z,80.68
2019-01-04T15:53:00.357Z,81.92
2019-01-04T15:55:33.562Z,82.55
2019-01-04T15:58:04.421Z,83.45
2019-01-04T16:00:35.345Z,83.86
2019-01-04T16:03:07.159Z,83.61
2019-01-04T16:05:41.133Z,83.71
2019-01-04T16:08:15.021Z,84.77
2019-01-04T16:10:47.339Z,85.41
2019-01-04T16:13:17.887Z,85.54
2019-01-04T16:15:49.159Z,85.78
2019-01-04T16:18:24.416Z,85.84
2019-01-04T16:20:53.763Z,86.08
2019-01-04T16:23:24.311Z,87.21
2019-01-04T16:25:54.763Z,87.58
2019-01-04T16:28:51.035Z,87.62
2019-01-04T16:31:22.267Z,87.62
2019-01-04T16:33:53.159Z,87.66
2019-01-04T16:36:25.815Z,87.76
2019-01-04T16:38:56.680Z,87.95
2019-01-04T16:41:30.092Z,88.33
2019-01-04T16:44:07.252Z,88.71
2019-01-04T16:46:38.886Z,88.54
2019-01-04T16:49:13.699Z,88.71
2019-01-04T16:51:52.968Z,88.49
2019-01-04T16:54:23.818Z,89.05
2019-01-04T16:59:51.939Z,89.08
2019-01-04T17:02:38.268Z,88.67
2019-01-04T17:05:15.331Z,88.65
2019-01-04T17:07:45.740Z,88.81
2019-01-04T17:10:16.036Z,88.70
2019-01-04T17:12:47.689Z,88.72
2019-01-04T17:15:18.069Z,88.71
2019-01-04T17:17:51.817Z,88.66
2019-01-04T17:20:22.070Z,87.80
2019-01-04T17:23:00.697Z,87.45
2019-01-04T17:25:31.426Z,87.59
2019-01-04T17:28:06.010Z,87.42
2019-01-04T17:30:55.764Z,86.90
2019-01-04T17:33:17.569Z,87.27
2019-01-04T17:35:55.061Z,87.48
2019-01-04T17:38:25.587Z,87.91
2019-01-04T17:40:56.232Z,87.62
2019-01-04T17:43:27.080Z,88.01
2019-01-04T17:46:02.771Z,87.69
2019-01-04T17:48:38.081Z,85.69
2019-01-04T17:51:20.708Z,84.98
2019-01-04T17:53:42.774Z,83.95
2019-01-04T17:56:14.842Z,84.10
2019-01-04T17:58:47.240Z,83.45
2019-01-04T18:01:29.806Z,82.16
2019-01-04T18:04:07.188Z,82.33
2019-01-04T18:06:42.946Z,82.89
2019-01-04T18:09:19.920Z,82.11
2019-01-04T18:11:54.283Z,82.07
2019-01-04T18:14:26.174Z,81.97
2019-01-04T18:20:14.040Z,80.17
2019-01-04T18:22:48.739Z,80.14
2019-01-04T18:25:19.550Z,79.95
2019-01-04T18:27:50.499Z,79.62
2019-01-04T18:30:21.339Z,79.92
2019-01-04T18:32:51.884Z,80.50
2019-01-04T18:35:24.658Z,80.31
2019-01-04T18:38:15.384Z,79.55
2019-01-04T18:40:41.705Z,79.48
2019-01-04T18:43:15.719Z,80.25
2019-01-04T18:45:51.325Z,80.60
2019-01-04T18:48:22.744Z,80.03
2019-01-04T18:50:58.334Z,80.23
2019-01-04T18:53:38.811Z,79.98
2019-01-04T18:56:04.692Z,80.50
2019-01-04T18:58:35.093Z,80.79
2019-01-04T19:01:29.411Z,80.64
2019-01-04T19:04:01.585Z,80.74
2019-01-04T19:06:32.443Z,80.54
2019-01-04T19:09:02.939Z,80.19
2019-01-04T19:11:34.746Z,80.21
2019-01-04T19:14:09.727Z,80.32
2019-01-04T19:16:43.760Z,80.06
2019-01-04T19:19:16.459Z,80.16
2019-01-04T19:21:49.518Z,80.59
2019-01-04T19:24:20.041Z,81.10
2019-01-04T19:26:50.528Z,80.98
2019-01-04T19:29:21.919Z,80.95
2019-01-04T19:31:53.277Z,80.76
2019-01-04T19:34:27.358Z,80.68
2019-01-04T19:36:57.790Z,80.58
2019-01-04T19:39:30.943Z,80.56
2019-01-04T19:42:02.186Z,80.67
2019-01-04T19:44:34.090Z,80.90
2019-01-04T19:47:04.589Z,80.94
2019-01-04T19:49:35.464Z,81.28
2019-01-04T19:52:06.130Z,81.28
2019-01-04T19:54:36.598Z,81.56
2019-01-04T19:57:07.842Z,81.23
2019-01-04T19:59:38.219Z,81.44
2019-01-04T20:02:08.603Z,81.97
2019-01-04T20:04:41.006Z,81.86
2019-01-04T20:08:18.909Z,81.83
2019-01-04T20:11:33.238Z,81.67
2019-01-04T20:15:15.015Z,81.70
2019-01-04T20:18:16.078Z,81.65
2019-01-04T20:21:05.362Z,81.92
2019-01-04T20:23:53.396Z,82.08
2019-01-04T20:26:49.214Z,82.56
2019-01-04T20:29:45.971Z,82.67
2019-01-04T20:32:38.028Z,82.86
2019-01-04T20:35:33.395Z,82.75
2019-01-04T20:38:22.564Z,82.49
2019-01-04T20:41:10.072Z,82.56
2019-01-04T20:44:17.017Z,82.46
2019-01-04T20:47:13.618Z,82.85
2019-01-04T20:50:04.681Z,82.87
2019-01-04T20:52:54.763Z,82.88
2019-01-04T20:55:50.071Z,83.15
2019-01-04T20:58:34.985Z,83.72
2019-01-04T21:01:23.062Z,83.87
2019-01-04T21:04:11.689Z,85.14
2019-01-04T21:07:02.489Z,85.89
2019-01-04T21:09:57.851Z,86.49
2019-01-04T21:12:45.633Z,86.90
2019-01-04T21:15:34.871Z,87.94
2019-01-04T21:18:24.213Z,88.63
2019-01-04T21:21:14.943Z,88.98
2019-01-04T21:24:04.487Z,89.68
2019-01-04T21:26:47.392Z,90.14
2019-01-04T21:29:42.829Z,90.43
2019-01-04T21:32:30.272Z,90.81
2019-01-04T21:35:19.200Z,91.29
2019-01-04T21:38:26.218Z,90.94
2019-01-04T21:41:23.348Z,90.99
2019-01-04T21:44:24.813Z,91.37
2019-01-04T21:47:20.116Z,91.71
2019-01-04T21:50:09.183Z,92.02
2019-01-04T21:52:56.737Z,91.90
2019-01-04T21:55:45.877Z,91.80
2019-01-04T21:58:51.787Z,91.65
2019-01-04T22:01:44.715Z,91.86
2019-01-04T22:04:40.333Z,92.37
2019-01-04T22:07:44.500Z,91.97
2019-01-04T22:10:43.006Z,91.14
2019-01-04T22:13:30.693Z,91.16
2019-01-04T22:16:18.574Z,90.94
2019-01-04T22:19:07.658Z,91.00
2019-01-04T22:22:14.857Z,90.46
2019-01-04T22:25:16.023Z,90.18
2019-01-04T22:28:23.577Z,89.84
2019-01-04T22:31:11.123Z,89.55
2019-01-04T22:34:00.869Z,89.36
2019-01-04T22:36:49.949Z,89.39
2019-01-04T22:39:38.744Z,88.96
2019-01-04T22:42:27.863Z,88.96
2019-01-04T22:45:13.347Z,89.08
2019-01-04T22:48:02.409Z,88.62
2019-01-04T22:51:01.103Z,88.74
2019-01-04T22:53:48.576Z,88.48
2019-01-04T22:56:51.170Z,88.70
2019-01-04T22:59:43.269Z,88.67
2019-01-04T23:02:50.866Z,88.41
2019-01-04T23:05:38.924Z,88.57
2019-01-04T23:08:40.386Z,88.75
2019-01-04T23:11:44.839Z,89.03
2019-01-04T23:14:44.061Z,89.49
2019-01-04T23:17:43.082Z,89.44
2019-01-04T23:20:33.711Z,89.61
2019-01-04T23:23:21.340Z,90.25
2019-01-04T23:26:09.325Z,90.50
2019-01-04T23:28:58.659Z,90.80
2019-01-04T23:32:06.027Z,91.16
2019-01-04T23:35:13.523Z,91.18
2019-01-04T23:38:08.728Z,91.66
2019-01-04T23:41:06.761Z,91.60
2019-01-04T23:43:57.173Z,91.40
2019-01-04T23:46:58.107Z,91.35
2019-01-04T23:49:50.548Z,91.31
2019-01-04T23:52:38.291Z,91.25
2019-01-04T23:55:22.690Z,91.01
2019-01-04T23:58:26.709Z,90.97
